Estación Meteorológica Peña el Pijo (Robertgarden) [ 01/30/23 13:55:29 CET ]

Fecha Hora Presion(HPa) Temp (°C) Humedad % Rocio (°C) Viento ( m/s) Direccion Lluvia 1Hora(mm) Lluvia 24H(mm) LLuvia Total(mm)
2010-Feb-06 01:01:13 1014.700 5.9 71 1.1         71.48
2010-Feb-06 02:03:15 1014.600 5.8 71 1.0         71.48
2010-Feb-06 03:01:14 1014.200 5.8 70 0.8         71.48
2010-Feb-06 04:01:12 1014.200 5.3 72 0.7         71.48
2010-Feb-06 05:01:14 1014.000 5.2 74 0.9         71.48
2010-Feb-06 06:01:14 1013.500 5.3 73 0.8         71.48
2010-Feb-06 07:01:14 1013.300 5.3 74 1.0         71.48
2010-Feb-06 08:01:12 1013.100 5.0 75 0.9         71.48
2010-Feb-06 09:01:13 1013.000 5.8 71 1.0         71.48
2010-Feb-06 10:01:12 1013.200 8.4 60 1.1         71.48
2010-Feb-06 11:01:10 1013.300 11.1 47 0.2 3.8 SSE     71.48
2010-Feb-06 12:01:13 1013.800 13.3 42 0.6         71.48
2010-Feb-06 13:01:11 1012.800 16.1 36 0.9         71.48
2010-Feb-06 14:01:18 1011.900 17.5 33 0.9         71.48
2010-Feb-06 15:01:17 1011.800 17.9 30 0.0         71.48
2010-Feb-06 16:01:17 1011.800 17.9 30 0.1         71.48
2010-Feb-06 17:01:17 1012.000 15.9 34 -0.1         71.48
2010-Feb-06 18:01:17 1012.100 12.4 39 -1.2         71.48
2010-Feb-06 19:01:13 1011.800 8.6 51 -1.0         71.48
2010-Feb-06 20:01:16 1012.200 5.5 63 -1.0         71.48
2010-Feb-06 21:01:13 1012.000 4.1 69 -1.1         71.48
2010-Feb-06 22:01:12 1011.700 3.3 72 -1.3         71.48
2010-Feb-06 23:01:11 1011.600 2.4 74 -1.8         71.48

Temperatura Máxima:17°    Temperatura Mínima:
Presión Máxima:1014.700 Hpa    Presión Mínima:1011.600 Hpa


Volver